• Join FlightAware (Why Join?)
  • Login
  • US Flag 
01:42PM EDT


 

Airport Tracker/Info


-or-


 

Live Flight TrackerFlight Track Log ✈ N680AN ✈ 22-Apr-2013 ✈ KBOS - KMIA

Flight Track Log - Related Links

Times and Time Zones

All times are in EDT time to prevent confusion due to time zone crossing. See the N680AN flight status page for this flight to view local times or setup timezone preferences in your user account.

Time Position Orientation Groundspeed Altitude Reporting Facility
EDT Latitude Longitude Course Direction KTS MPH feet Rate Location/Type
12:25PM 42.3667 -70.9833 198° South 168 193 800  Level KA90
12:25PM 42.3667 -70.9167 90° East 184 212 3,100 2,160 Climbing KA90
12:26PM 42.3833 -70.8333 75° East 233 268 5,000 2,040 Climbing KA90
12:27PM 42.3574 -70.7129 164° South  Level FlightAware Approximate
12:28PM 42.2585 -70.6626 160° South  Level FlightAware Approximate
12:28PM 42.3772 -70.7342 95° East 273 314 7,900  Level Boston Center
12:29PM 42.1584 -70.6125 160° South  Level FlightAware Approximate
12:29PM 42.3161 -70.6936 154° Southeast 216 249 10,700  Level Boston Center
12:30PM 42.0577 -70.6348 198° South  Level FlightAware Approximate
12:30PM 42.2322 -70.6539 161° South 242 278 12,000  Level Boston Center
12:31PM 42.1336 -70.6203 166° South 309 356 13,900 1,500 Climbing Boston Center
12:32PM 42.0322 -70.6625 197° South 345 397 15,100 1,620 Climbing Boston Center
12:33PM 41.9514 -70.6983 198° South 364 419 17,200 2,340 Climbing Boston Center
12:34PM 41.8231 -70.7603 200° South 391 450 19,800 2,340 Climbing Boston Center
12:35PM 41.7261 -70.8294 208° Southwest 407 468 21,900 2,220 Climbing Boston Center
12:36PM 41.6189 -70.9183 212° Southwest 412 474 24,300 2,280 Climbing Boston Center
12:37PM 41.5264 -71.0067 216° Southwest 417 480 26,500 2,160 Climbing Boston Center
12:38PM 41.4569 -71.1189 230° Southwest 391 450 28,700 1,800 Climbing Boston Center
12:39PM 41.3933 -71.2225 231° Southwest 391 450 30,100 1,560 Climbing Boston Center
12:40PM 41.3300 -71.3233 230° Southwest 378 435 31,900 900 Climbing Boston Center
12:41PM 41.2725 -71.4211 232° Southwest 354 407 32,000 300 Climbing Boston Center
12:42PM 41.2108 -71.5158 229° Southwest 349 402 32,500 1,080 Climbing Boston Center
12:43PM 41.1594 -71.5964 230° Southwest 343 395 34,200 1,500 Climbing Boston Center
12:44PM 41.1225 -71.7072 246° West 331 381 35,600 900 Climbing Boston Center
12:45PM 41.0836 -71.8150 244° Southwest 326 375 36,000 180 Climbing Boston Center
12:46PM 41.0319 -71.9144 235° Southwest 326 375 36,000  Level Boston Center
12:47PM 40.9617 -72.0142 227° Southwest 338 389 36,000  Level Boston Center
12:48PM 40.8931 -72.0969 222° Southwest 338 389 36,000  Level Boston Center
12:49PM 40.8247 -72.1850 224° Southwest 338 389 36,000  Level Boston Center
12:50PM 40.7581 -72.2675 223° Southwest 338 389 36,000  Level Boston Center
12:51PM 40.6956 -72.3389 221° Southwest 338 389 36,000  Level Boston Center
12:52PM 40.6417 -72.4072 224° Southwest 338 389 36,000  Level Boston Center
12:53PM 40.5603 -72.5083 223° Southwest 343 395 36,000  Level Boston Center
12:54PM 40.4936 -72.5903 223° Southwest 338 389 36,000  Level Boston Center
12:55PM 40.4247 -72.6744 223° Southwest 338 389 36,000  Level Boston Center
12:56PM 40.3597 -72.7586 225° Southwest 338 389 36,000  Level Boston Center
12:57PM 40.2886 -72.8400 221° Southwest 338 389 36,000  Level Boston Center
12:58PM 40.2239 -72.9239 225° Southwest 338 389 36,000  Level Boston Center
12:59PM 40.1503 -73.0183 224° Southwest 338 389 36,000  Level Boston Center
01:00PM 40.0447 -73.1497 224° Southwest 316 364 36,000  Level Washington Center
01:01PM 39.9736 -73.2308 221° Southwest 329 379 36,000  Level Washington Center
01:02PM 39.9064 -73.3167 224° Southwest 329 379 36,000  Level Washington Center
01:03PM 39.8269 -73.4083 222° Southwest 341 392 36,000  Level Washington Center
01:04PM 39.7575 -73.4917 223° Southwest 341 392 36,000  Level Washington Center
01:05PM 39.6881 -73.5744 223° Southwest 347 399 36,000  Level Washington Center
01:06PM 39.6144 -73.6600 222° Southwest 352 405 36,000  Level Washington Center
01:07PM 39.5472 -73.7453 224° Southwest 352 405 36,000  Level Washington Center
01:08PM 39.4756 -73.8306 223° Southwest 352 405 36,000  Level Washington Center
01:09PM 39.4036 -73.9128 221° Southwest 352 405 36,000  Level Washington Center
01:10PM 39.3483 -73.9814 224° Southwest 352 405 36,000  Level Washington Center
01:11PM 39.2703 -74.0742 223° Southwest 352 405 36,000  Level Washington Center
01:12PM 39.1983 -74.1561 221° Southwest 352 405 36,000  Level Washington Center
01:13PM 39.1286 -74.2431 224° Southwest 352 405 36,000  Level Washington Center
01:14PM 39.0567 -74.3247 221° Southwest 352 405 36,000  Level Washington Center
01:15PM 38.9864 -74.4058 222° Southwest 352 405 36,000  Level Washington Center
01:16PM 38.9144 -74.4897 222° Southwest 352 405 36,000  Level Washington Center
01:17PM 38.8442 -74.5736 223° Southwest 352 405 36,000  Level Washington Center
01:18PM 38.7678 -74.6597 221° Southwest 358 412 36,000  Level Washington Center
01:19PM 38.6956 -74.7406 221° Southwest 358 412 36,000  Level Washington Center
01:20PM 38.6231 -74.8236 222° Southwest 358 412 36,000  Level Washington Center
01:21PM 38.5486 -74.9042 220° Southwest 358 412 36,000  Level Washington Center
01:22PM 38.4761 -74.9925 224° Southwest 358 412 36,000  Level Washington Center
01:23PM 38.4056 -75.0697 221° Southwest 358 412 36,000  Level Washington Center
01:24PM 38.3308 -75.1603 224° Southwest 358 412 36,000  Level Washington Center
01:25PM 38.2581 -75.2400 221° Southwest 358 412 36,000  Level Washington Center
01:26PM 38.1853 -75.3275 223° Southwest 363 418 36,000  Level Washington Center
01:27PM 38.1125 -75.4122 222° Southwest 363 418 36,000  Level Washington Center
01:28PM 38.0397 -75.4758 215° Southwest 363 418 36,000  Level Washington Center
01:29PM 37.9478 -75.5286 204° Southwest 368 423 36,000  Level Washington Center
01:30PM 37.8417 -75.5944 206° Southwest 363 418 36,000  Level Washington Center
01:31PM 37.7519 -75.6497 206° Southwest 363 418 36,000  Level Washington Center
01:32PM 37.6706 -75.6967 205° Southwest 363 418 36,000  Level Washington Center
01:33PM 37.5725 -75.7594 207° Southwest 363 418 36,000  Level Washington Center
01:34PM 37.4806 -75.8117 204° Southwest 363 418 36,000  Level Washington Center
01:35PM 37.3908 -75.8636 205° Southwest 363 418 36,000  Level Washington Center
01:36PM 37.3008 -75.9183 206° Southwest 363 418 36,000  Level Washington Center
01:37PM 37.2111 -75.9700 205° Southwest 363 418 36,000  Level Washington Center
01:38PM 37.1211 -76.0242 206° Southwest 363 418 36,000  Level Washington Center
01:39PM 37.0333 -76.0783 206° Southwest 363 418 36,000  Level Washington Center
01:40PM 36.9456 -76.1219 202° Southwest 368 423 36,000  Level Washington Center
01:41PM 36.8536 -76.1733 204° Southwest 368 423 36,000  Level Washington Center
01:42PM 36.7636 -76.2272 206° Southwest 368 423 36,000  Level Washington Center
01:43PM 36.6653 -76.2858 206° Southwest 358 412 36,000  Level Washington Center
01:44PM 36.5753 -76.3369 205° Southwest 358 412 36,000  Level Washington Center
01:45PM 36.4831 -76.3903 205° Southwest 363 418 36,000  Level Washington Center
01:46PM 36.3931 -76.4408 204° Southwest 363 418 36,000  Level Washington Center
01:47PM 36.3008 -76.4939 205° Southwest 363 418 36,000  Level Washington Center
01:48PM 36.2086 -76.5444 204° Southwest 363 418 36,000  Level Washington Center
01:49PM 36.1183 -76.5947 204° Southwest 363 418 36,000  Level Washington Center
01:51PM 36.0109 -76.6466 201° Southwest  Level FlightAware Approximate
01:51PM 35.9339 -76.7003 201° Southwest 363 418 36,000  Level Washington Center
01:52PM 35.8417 -76.7528 205° Southwest 363 418 36,000  Level Washington Center
01:53PM 35.7494 -76.8025 204° Southwest 363 418 36,000  Level Washington Center
01:54PM 35.6569 -76.8497 203° Southwest 363 418 36,000  Level Washington Center
01:55PM 35.5772 -76.8994 207° Southwest 358 412 36,000  Level Washington Center
01:56PM 35.4806 -76.9517 204° Southwest 365 420 36,000  Level Washington Center
01:57PM 35.3883 -77.0036 205° Southwest 365 420 36,000  Level Washington Center
01:58PM 35.2958 -77.0553 205° Southwest 371 427 36,000  Level Washington Center
01:59PM 35.2014 -77.1069 204° Southwest 371 427 36,000  Level Washington Center
02:00PM 35.1089 -77.1586 205° Southwest 371 427 36,000  Level Washington Center
02:01PM 35.0142 -77.2100 204° Southwest 371 427 36,000  Level Washington Center
02:02PM 34.9156 -77.2586 202° Southwest 371 427 36,000  Level Washington Center
02:03PM 34.8064 -77.3019 198° South 381 438 36,000  Level Washington Center
02:04PM 34.7036 -77.3378 196° South 381 438 36,000  Level Washington Center
02:05PM 34.6050 -77.3761 198° South 381 438 36,000  Level Washington Center
02:06PM 34.5003 -77.4117 196° South 381 438 36,000  Level Washington Center
02:07PM 34.3994 -77.4497 197° South 381 438 36,000  Level Washington Center
02:08PM 34.2989 -77.4825 195° South 381 438 36,000  Level Washington Center
02:09PM 34.1939 -77.5203 197° South 381 438 36,000  Level Washington Center
02:10PM 34.0911 -77.5531 195° South 381 438 36,000  Level Washington Center
02:11PM 34.0247 -77.5733 194° South 383 441 36,000  Level Jacksonville Center
02:12PM 33.9303 -77.6092 197° South 372 428 36,000  Level Jacksonville Center
02:13PM 33.8272 -77.6403 194° South 377 434 36,000  Level Jacksonville Center
02:14PM 33.7206 -77.6817 198° South 387 445 36,000  Level Jacksonville Center
02:15PM 33.6031 -77.7211 196° South 398 458 36,000  Level Jacksonville Center
02:16PM 33.4961 -77.7572 196° South 398 458 36,000  Level Jacksonville Center
02:17PM 33.4014 -77.7900 196° South 393 452 36,000  Level Jacksonville Center
02:18PM 33.2964 -77.8233 195° South 393 452 36,000  Level Jacksonville Center
02:19PM 33.1894 -77.8617 197° South 393 452 36,000  Level Jacksonville Center
02:20PM 33.0822 -77.8950 195° South 393 452 36,000  Level Jacksonville Center
02:21PM 32.9772 -77.9306 196° South 393 452 36,000  Level Jacksonville Center
02:22PM 32.8700 -77.9661 196° South 393 452 36,000  Level Jacksonville Center
02:23PM 32.7631 -78.0017 196° South 393 452 36,000  Level Jacksonville Center
02:24PM 32.6578 -78.0369 196° South 393 452 36,000  Level Jacksonville Center
02:25PM 32.5508 -78.0747 197° South 393 452 36,000  Level Jacksonville Center
02:26PM 32.4436 -78.1100 196° South 393 452 36,000  Level Jacksonville Center
02:27PM 32.3364 -78.1425 194° South 393 452 36,000  Level Jacksonville Center
02:28PM 32.2292 -78.1800 196° South 393 452 36,000  Level Jacksonville Center
02:29PM 32.1200 -78.2200 197° South 393 452 36,000  Level Jacksonville Center
02:30PM 32.0003 -78.2578 195° South 407 468 36,000  Level Jacksonville Center
02:31PM 31.9014 -78.2922 196° South 407 468 36,000  Level Jacksonville Center
02:32PM 31.7919 -78.3269 195° South 413 475 36,000  Level Jacksonville Center
02:33PM 31.6806 -78.3642 196° South 413 475 36,000  Level Jacksonville Center
02:34PM 31.5692 -78.3964 194° South 413 475 36,000  Level Jacksonville Center
02:35PM 31.4556 -78.4336 196° South 413 475 36,000  Level Jacksonville Center
02:36PM 31.3442 -78.4731 197° South 413 475 36,000  Level Jacksonville Center
02:37PM 31.2347 -78.5072 195° South 413 475 36,000  Level Jacksonville Center
02:38PM 31.1253 -78.5439 196° South 418 481 36,000  Level Jacksonville Center
02:39PM 30.9992 -78.5789 193° South 419 482 36,000  Level Jacksonville Center
02:40PM 30.8919 -78.6175 197° South 417 480 36,000  Level Jacksonville Center
02:41PM 30.7825 -78.6539 196° South 429 494 36,000  Level Jacksonville Center
02:42PM 30.6711 -78.6881 195° South 410 472 36,000  Level Jacksonville Center
02:43PM 30.6019 -78.7036 191° South 409 471 36,000  Level Miami Center
02:44PM 30.4911 -78.7256 190° South 415 478 36,000  Level Miami Center
02:45PM 30.3783 -78.7453 189° South 415 478 36,000  Level Miami Center
02:46PM 30.2614 -78.7719 191° South 420 483 36,000  Level Miami Center
02:47PM 30.1506 -78.7942 190° South 427 491 36,000  Level Miami Center
02:48PM 30.0333 -78.8183 190° South 427 491 36,000  Level Miami Center
02:49PM 29.9206 -78.8475 193° South 427 491 36,000  Level Miami Center
02:50PM 29.8053 -78.8764 192° South 419 482 36,000  Level Miami Center
02:51PM 29.6861 -78.8956 188° South 434 499 36,000  Level Miami Center
02:52PM 29.5689 -78.9244 192° South 434 499 36,000  Level Miami Center
02:53PM 29.4414 -78.9436 187° South 434 499 36,000  Level Miami Center
02:54PM 29.3203 -78.9675 190° South 441 507 36,000  Level Miami Center
02:55PM 29.2008 -78.9936 191° South 446 513 36,000  Level Miami Center
02:56PM 29.0775 -79.0172 189° South 452 520 36,000  Level Miami Center
02:57PM 28.9519 -79.0411 189° South 452 520 36,000  Level Miami Center
02:58PM 28.8325 -79.0669 191° South 452 520 36,000  Level Miami Center
02:59PM 28.7133 -79.0908 190° South 452 520 36,000  Level Miami Center
03:00PM 28.5917 -79.1167 191° South 447 514 36,000  Level Miami Center
03:01PM 28.4683 -79.1403 190° South 447 514 36,000  Level Miami Center
03:02PM 28.3469 -79.1636 190° South 447 514 36,000  Level Miami Center
03:03PM 28.2253 -79.1872 190° South 447 514 36,000 -480 Level Miami Center
03:04PM 28.1039 -79.2128 191° South 447 514 35,100 -1,200 Descending Miami Center
03:05PM 27.9783 -79.2383 190° South 447 514 33,600 -1,560 Descending Miami Center
03:06PM 27.8464 -79.2639 190° South 447 514 32,000 -2,160 Descending Miami Center
03:07PM 27.7331 -79.2872 190° South 453 521 29,400 -2,520 Descending Miami Center
03:08PM 27.6094 -79.3128 190° South 448 516 27,000 -2,640 Descending Miami Center
03:09PM 27.4881 -79.3361 190° South 427 491 24,200 -1,500 Descending Miami Center
03:10PM 27.3728 -79.3569 189° South 421 484 24,000 -120 Descending Miami Center
03:11PM 27.2575 -79.3800 190° South 421 484 24,000  Level Miami Center
03:12PM 27.1528 -79.4011 190° South 421 484 24,000  Level Miami Center
03:13PM 27.0414 -79.4336 195° South 426 490 24,000  Level Miami Center
03:14PM 26.9175 -79.4728 196° South 426 490 24,000 -900 Level Miami Center
03:15PM 26.8042 -79.5075 195° South 426 490 22,200 -1,860 Descending Miami Center
03:16PM 26.6928 -79.5378 194° South 415 478 20,300 -2,100 Descending Miami Center
03:17PM 26.5917 -79.5889 204° Southwest 408 470 18,100 -2,100 Descending Miami Center
03:18PM 26.5089 -79.6567 216° Southwest 399 459 16,200 -1,200 Descending Miami Center
03:18PM 26.4744 -79.7183 238° Southwest 323 372 16,100 -120 Descending Miami Center
03:19PM 26.4614 -79.7414 238° Southwest 342 394 16,100 -540 Level Miami Center
03:19PM 26.4267 -79.7983 236° Southwest 293 337 15,600 -900 Descending Miami Center
03:20PM 26.4181 -79.8167 242° Southwest 321 369 15,200 -1,620 Descending Miami Center
03:20PM 26.3833 -79.8761 237° Southwest 293 337 14,000 -1,740 Descending Miami Center
03:21PM 26.3683 -79.8919 223° Southwest 311 358 13,500 -1,380 Descending Miami Center
03:21PM 26.3256 -79.9419 226° Southwest 294 338 12,600 -1,200 Descending Miami Center
03:22PM 26.3108 -79.9556 220° Southwest 301 346 12,300 -1,380 Descending Miami Center
03:23PM 26.2658 -80.0031 223° Southwest 286 329 11,200 -1,140 Descending Miami Center
03:23PM 26.2531 -80.0164 223° Southwest 288 331 11,200 -1,200 Level Miami Center
03:24PM 26.1900 -80.0333 194° South 290 334 10,000 -1,200 Descending Miami Center
03:24PM 26.1817 -80.0331 178° South 281 323 10,000 -240 Level Miami Center
03:25PM 26.1100 -80.0567 196° South 291 335 9,800 -960 Descending Miami Center
03:26PM 26.0303 -80.0775 193° South 286 329 8,300 -840 Descending Miami Center
03:27PM 25.9522 -80.1103 201° Southwest 291 335 8,000 -180 Descending Miami Center
03:28PM 25.9108 -80.1922 241° Southwest 283 326 8,000  Level Miami Center
03:29PM 25.9172 -80.2686 275° West 234 269 8,100 -660 Climbing Miami Center
03:30PM 25.9325 -80.3314 285° West 229 264 6,800 -1,740 Descending Miami Center
03:31PM 25.9308 -80.4053 269° West 228 262 4,800 -1,680 Descending Miami Center
03:32PM 25.8881 -80.4478 222° Southwest 198 228 3,400 -1,260 Descending Miami Center
03:33PM 25.8553 -80.4192 142° Southeast 144 166 2,300 -960 Descending Miami Center
03:34PM 25.8353 -80.3817 121° Southeast 146 168 1,600 -780 Descending Miami Center